createdAt,value
2023-03-21T00:01:55.298Z,57.50
2023-03-21T00:04:24.465Z,57.60
2023-03-21T00:06:51.764Z,57.60
2023-03-21T00:09:19.711Z,57.80
2023-03-21T00:11:46.804Z,57.80
2023-03-21T00:14:15.978Z,57.70
2023-03-21T00:16:45.879Z,57.80
2023-03-21T00:19:14.570Z,57.80
2023-03-21T00:22:05.887Z,57.90
2023-03-21T00:24:30.804Z,57.90
2023-03-21T00:27:15.901Z,57.90
2023-03-21T00:29:44.716Z,57.70
2023-03-21T00:32:11.890Z,57.60
2023-03-21T00:34:48.476Z,58.10
2023-03-21T00:37:21.468Z,57.80
2023-03-21T00:39:49.424Z,57.80
2023-03-21T00:42:16.876Z,58.10
2023-03-21T00:44:44.906Z,57.80
2023-03-21T00:47:13.064Z,57.90
2023-03-21T00:49:40.601Z,57.90
2023-03-21T00:52:20.154Z,57.90
2023-03-21T00:54:51.726Z,58.00
2023-03-21T00:57:22.104Z,57.60
2023-03-21T00:59:51.217Z,57.80
2023-03-21T01:02:23.233Z,58.20
2023-03-21T01:04:50.527Z,57.80
2023-03-21T01:07:17.512Z,57.70
2023-03-21T01:09:44.560Z,58.10
2023-03-21T01:12:11.733Z,57.90
2023-03-21T01:14:38.748Z,57.90
2023-03-21T01:17:06.315Z,57.40
2023-03-21T01:19:50.153Z,57.80
2023-03-21T01:22:18.540Z,57.70
2023-03-21T01:24:53.796Z,58.10
2023-03-21T01:27:22.562Z,57.90
2023-03-21T01:29:49.687Z,57.70
2023-03-21T01:32:16.949Z,57.70
2023-03-21T01:34:44.035Z,58.10
2023-03-21T01:37:11.130Z,57.90
2023-03-21T01:39:44.960Z,57.80
2023-03-21T01:42:13.655Z,57.70
2023-03-21T01:44:57.499Z,57.40
2023-03-21T01:47:28.030Z,57.30
2023-03-21T01:50:03.996Z,57.60
2023-03-21T01:52:48.102Z,57.40
2023-03-21T01:55:25.418Z,57.50
2023-03-21T01:58:11.164Z,57.30
2023-03-21T02:01:02.808Z,57.20
2023-03-21T02:03:50.948Z,57.10
2023-03-21T02:06:52.993Z,57.20
2023-03-21T02:09:46.842Z,57.00
2023-03-21T02:12:18.753Z,57.20
2023-03-21T02:14:49.637Z,57.30
2023-03-21T02:17:56.841Z,57.10
2023-03-21T02:20:52.300Z,57.30
2023-03-21T02:23:30.085Z,57.40
2023-03-21T02:26:36.145Z,57.10
2023-03-21T02:29:18.279Z,57.20
2023-03-21T02:32:36.606Z,57.50
2023-03-21T02:35:22.413Z,57.20
2023-03-21T02:38:16.853Z,57.10
2023-03-21T02:41:00.405Z,56.90
2023-03-21T02:43:56.203Z,57.10
2023-03-21T02:46:45.436Z,57.40
2023-03-21T02:49:36.678Z,57.00
2023-03-21T02:52:15.607Z,57.10
2023-03-21T02:54:48.966Z,57.10
2023-03-21T02:57:22.813Z,57.10
2023-03-21T03:00:16.169Z,57.10
2023-03-21T03:02:46.569Z,56.90
2023-03-21T03:05:30.560Z,56.60
2023-03-21T03:08:37.592Z,56.80
2023-03-21T03:11:18.860Z,56.70
2023-03-21T03:14:25.084Z,56.50
2023-03-21T03:17:06.507Z,56.70
2023-03-21T03:19:49.947Z,56.50
2023-03-21T03:22:31.445Z,56.50
2023-03-21T03:25:18.482Z,56.30
2023-03-21T03:27:50.752Z,56.50
2023-03-21T03:30:18.186Z,56.60
2023-03-21T03:32:52.824Z,56.70
2023-03-21T03:35:22.773Z,56.40
2023-03-21T03:37:57.336Z,56.60
2023-03-21T03:40:30.631Z,56.30
2023-03-21T03:43:20.544Z,56.70
2023-03-21T03:45:56.409Z,56.10
2023-03-21T03:48:25.361Z,56.50
2023-03-21T03:51:16.236Z,56.40
2023-03-21T03:54:17.652Z,56.90
2023-03-21T03:56:46.863Z,56.40
2023-03-21T03:59:21.999Z,56.70
2023-03-21T04:02:09.660Z,57.20
2023-03-21T04:04:37.178Z,57.00
2023-03-21T04:07:05.052Z,57.10
2023-03-21T04:09:43.737Z,57.10
2023-03-21T04:12:13.605Z,56.80
2023-03-21T04:14:46.019Z,57.30
2023-03-21T04:17:16.094Z,57.00
2023-03-21T04:19:43.321Z,57.10
2023-03-21T04:22:10.851Z,57.20
2023-03-21T04:24:42.461Z,57.50
2023-03-21T04:27:09.733Z,57.10
2023-03-21T04:29:42.306Z,57.20
2023-03-21T04:32:28.255Z,57.30
2023-03-21T04:35:08.395Z,57.30
2023-03-21T04:37:36.215Z,57.30
2023-03-21T04:40:06.896Z,57.40
2023-03-21T04:42:35.318Z,57.50
2023-03-21T04:45:02.819Z,57.60
2023-03-21T04:47:30.213Z,57.40
2023-03-21T04:49:57.433Z,57.40
2023-03-21T04:52:25.493Z,57.80
2023-03-21T04:54:52.970Z,57.70
2023-03-21T04:57:20.579Z,57.60
2023-03-21T04:59:47.622Z,57.60
2023-03-21T05:02:15.537Z,57.70
2023-03-21T05:04:43.503Z,57.60
2023-03-21T05:07:11.224Z,58.00
2023-03-21T05:09:38.751Z,57.80
2023-03-21T05:12:06.026Z,57.70
2023-03-21T05:14:34.906Z,58.00
2023-03-21T05:17:05.489Z,58.20
2023-03-21T05:19:36.509Z,57.90
2023-03-21T05:22:08.386Z,58.10
2023-03-21T05:24:39.214Z,57.90
2023-03-21T05:27:08.544Z,57.80
2023-03-21T05:29:41.632Z,58.20
2023-03-21T05:32:10.250Z,58.20
2023-03-21T05:34:37.159Z,58.30
2023-03-21T05:37:04.617Z,57.90
2023-03-21T05:39:43.305Z,57.90
2023-03-21T05:42:18.624Z,58.00
2023-03-21T05:44:47.216Z,57.90
2023-03-21T05:47:16.747Z,57.80
2023-03-21T05:49:47.208Z,58.00
2023-03-21T05:52:15.947Z,57.90
2023-03-21T05:54:43.106Z,58.00
2023-03-21T05:57:10.722Z,58.10
2023-03-21T05:59:57.718Z,57.90
2023-03-21T06:02:24.758Z,58.40
2023-03-21T06:04:52.130Z,58.40
2023-03-21T06:07:21.625Z,58.30
2023-03-21T06:09:49.826Z,58.80
2023-03-21T06:12:17.011Z,59.20
2023-03-21T06:15:10.256Z,59.10
2023-03-21T06:17:45.818Z,59.30
2023-03-21T06:20:13.888Z,59.30
2023-03-21T06:22:48.928Z,59.60
2023-03-21T06:25:15.934Z,59.70
2023-03-21T06:27:43.563Z,59.60
2023-03-21T06:30:11.379Z,60.20
2023-03-21T06:32:49.622Z,60.00
2023-03-21T06:35:18.318Z,59.80
2023-03-21T06:37:46.181Z,60.10
2023-03-21T06:40:13.874Z,60.70
2023-03-21T06:42:41.079Z,60.80
2023-03-21T06:45:12.002Z,60.80
2023-03-21T06:47:39.142Z,61.10
2023-03-21T06:50:13.248Z,60.90
2023-03-21T06:52:42.714Z,61.00
2023-03-21T06:55:13.352Z,60.90
2023-03-21T06:57:41.298Z,61.30
2023-03-21T07:00:09.847Z,62.00
2023-03-21T07:02:42.371Z,61.10
2023-03-21T07:05:14.590Z,61.30
2023-03-21T07:07:42.264Z,61.20
2023-03-21T07:10:10.350Z,61.50
2023-03-21T07:12:46.268Z,61.20
2023-03-21T07:15:22.129Z,61.70
2023-03-21T07:17:51.760Z,61.20
2023-03-21T07:20:19.066Z,61.20
2023-03-21T07:22:46.339Z,60.70
2023-03-21T07:25:14.400Z,60.60
2023-03-21T07:27:42.288Z,60.60
2023-03-21T07:30:11.118Z,60.90
2023-03-21T07:32:40.543Z,61.80
2023-03-21T07:35:11.104Z,61.80
2023-03-21T07:37:38.945Z,61.90
2023-03-21T07:40:10.513Z,61.90
2023-03-21T07:42:40.269Z,61.30
2023-03-21T07:45:09.622Z,60.40
2023-03-21T07:47:36.816Z,59.70
2023-03-21T07:50:04.635Z,59.90
2023-03-21T07:52:32.035Z,59.60
2023-03-21T07:54:58.974Z,59.70
2023-03-21T07:57:26.273Z,58.70
2023-03-21T07:59:53.314Z,59.40
2023-03-21T08:02:20.352Z,59.50
2023-03-21T08:04:47.491Z,59.60
2023-03-21T08:07:14.778Z,59.50
2023-03-21T08:09:43.853Z,58.40
2023-03-21T08:12:11.410Z,59.30
2023-03-21T08:14:38.701Z,59.10
2023-03-21T08:17:06.326Z,58.50
2023-03-21T08:19:33.358Z,58.90
2023-03-21T08:22:01.265Z,59.00
2023-03-21T08:24:29.000Z,59.10
2023-03-21T08:26:56.277Z,58.60
2023-03-21T08:29:25.095Z,58.50
2023-03-21T08:31:52.115Z,58.30
2023-03-21T08:34:19.637Z,58.20
2023-03-21T08:36:47.172Z,58.30
2023-03-21T08:39:14.260Z,58.00
2023-03-21T08:41:41.240Z,58.00
2023-03-21T08:44:09.725Z,57.50
2023-03-21T08:46:36.926Z,58.00
2023-03-21T08:49:04.031Z,57.60
2023-03-21T08:51:31.858Z,57.90
2023-03-21T08:53:58.805Z,57.60
2023-03-21T08:56:26.079Z,57.70
2023-03-21T08:58:53.014Z,58.00
2023-03-21T09:01:20.114Z,57.00
2023-03-21T09:03:47.120Z,57.30
2023-03-21T09:06:14.646Z,58.00
2023-03-21T09:08:42.106Z,57.90
2023-03-21T09:11:10.393Z,57.20
2023-03-21T09:13:37.339Z,57.30
2023-03-21T09:16:05.313Z,56.90
2023-03-21T09:18:48.964Z,56.40
2023-03-21T09:21:18.308Z,57.10
2023-03-21T09:23:46.204Z,56.70
2023-03-21T09:26:13.879Z,56.30
2023-03-21T09:28:41.632Z,56.20
2023-03-21T09:31:11.711Z,57.20
2023-03-21T09:33:42.470Z,56.40
2023-03-21T09:36:14.519Z,57.10
2023-03-21T09:38:43.136Z,57.10
2023-03-21T09:41:10.023Z,57.30
2023-03-21T09:43:59.209Z,56.50
2023-03-21T09:46:55.801Z,56.80
2023-03-21T09:49:31.344Z,56.30
2023-03-21T09:52:06.550Z,56.30
2023-03-21T09:54:40.796Z,56.30
2023-03-21T09:57:41.902Z,56.60
2023-03-21T10:00:25.713Z,56.30
2023-03-21T10:02:59.776Z,56.20
2023-03-21T10:05:30.237Z,56.70
2023-03-21T10:08:08.483Z,56.10
2023-03-21T10:10:41.664Z,56.10
2023-03-21T10:13:17.110Z,56.20
2023-03-21T10:15:44.176Z,56.10
2023-03-21T10:18:21.239Z,55.40
2023-03-21T10:20:48.405Z,56.00
2023-03-21T10:23:18.942Z,55.00
2023-03-21T10:25:54.916Z,55.40
2023-03-21T10:28:27.147Z,55.30
2023-03-21T10:30:58.341Z,54.90
2023-03-21T10:33:27.960Z,55.90
2023-03-21T10:36:08.325Z,57.10
2023-03-21T10:38:37.325Z,57.80
2023-03-21T10:41:04.337Z,57.20
2023-03-21T10:43:37.751Z,55.40
2023-03-21T10:46:21.301Z,56.30
2023-03-21T10:48:52.724Z,56.50
2023-03-21T10:51:23.356Z,56.30
2023-03-21T10:53:55.243Z,55.70
2023-03-21T10:56:31.700Z,56.10
2023-03-21T10:59:00.540Z,56.20
2023-03-21T11:01:43.375Z,55.80
2023-03-21T11:04:16.485Z,56.40
2023-03-21T11:06:50.237Z,56.80
2023-03-21T11:09:23.262Z,57.20
2023-03-21T11:12:02.434Z,56.00
2023-03-21T11:14:47.034Z,55.60
2023-03-21T11:17:16.784Z,55.10
2023-03-21T11:20:02.115Z,56.20
2023-03-21T11:22:37.340Z,55.60
2023-03-21T11:25:09.305Z,56.40
2023-03-21T11:27:36.415Z,55.30
2023-03-21T11:30:05.428Z,55.90
2023-03-21T11:32:38.523Z,56.20
2023-03-21T11:35:07.543Z,56.40
2023-03-21T11:37:41.619Z,55.60
2023-03-21T11:40:17.791Z,55.10
2023-03-21T11:42:48.303Z,55.80
2023-03-21T11:45:21.195Z,55.70
2023-03-21T11:47:50.717Z,56.10
2023-03-21T11:50:21.909Z,56.40
2023-03-21T11:53:18.243Z,56.60
2023-03-21T11:56:09.713Z,56.40
2023-03-21T11:58:56.006Z,56.20
2023-03-21T12:01:30.839Z,56.40
2023-03-21T12:04:27.072Z,56.90
2023-03-21T12:07:01.921Z,56.20
2023-03-21T12:09:32.953Z,56.50
2023-03-21T12:12:03.819Z,56.20
2023-03-21T12:14:46.846Z,56.10
2023-03-21T12:17:18.974Z,55.70
2023-03-21T12:19:51.863Z,56.10
2023-03-21T12:22:26.744Z,56.00
2023-03-21T12:25:21.904Z,56.10
2023-03-21T12:28:31.750Z,55.70
2023-03-21T12:31:14.752Z,55.80
2023-03-21T12:33:48.673Z,56.10
2023-03-21T12:36:18.482Z,56.10
2023-03-21T12:39:19.180Z,55.80
2023-03-21T12:42:18.279Z,55.70
2023-03-21T12:45:24.732Z,55.80
2023-03-21T12:47:56.274Z,55.90
2023-03-21T12:50:38.706Z,55.90
2023-03-21T12:53:28.785Z,55.70
2023-03-21T12:55:58.680Z,55.80
2023-03-21T12:58:28.328Z,55.80
2023-03-21T13:01:01.455Z,56.00
2023-03-21T13:03:51.672Z,54.80
2023-03-21T13:06:22.269Z,54.50
2023-03-21T13:09:05.329Z,55.50
2023-03-21T13:11:33.805Z,55.50
2023-03-21T13:14:15.864Z,55.50
2023-03-21T13:16:53.507Z,55.80
2023-03-21T13:19:25.701Z,56.00
2023-03-21T13:22:30.986Z,56.00
2023-03-21T13:25:05.278Z,55.70
2023-03-21T13:27:36.120Z,55.70
2023-03-21T13:30:18.459Z,55.30
2023-03-21T13:32:48.440Z,56.00
2023-03-21T13:35:38.408Z,56.20
2023-03-21T13:38:19.790Z,55.80
2023-03-21T13:41:05.660Z,55.90
2023-03-21T13:43:40.426Z,55.70
2023-03-21T13:46:13.339Z,55.90
2023-03-21T13:48:59.440Z,56.00
2023-03-21T13:51:29.734Z,55.60
2023-03-21T13:54:07.258Z,55.00
2023-03-21T13:56:47.135Z,54.80
2023-03-21T13:59:32.795Z,55.50
2023-03-21T14:02:11.951Z,55.90
2023-03-21T14:04:53.920Z,56.10
2023-03-21T14:07:41.004Z,56.10
2023-03-21T14:10:34.303Z,56.10
2023-03-21T14:13:02.225Z,56.10
2023-03-21T14:15:53.318Z,56.10
2023-03-21T14:18:34.932Z,55.90
2023-03-21T14:21:24.240Z,56.00
2023-03-21T14:24:05.169Z,56.20
2023-03-21T14:26:35.506Z,56.10
2023-03-21T14:29:07.134Z,55.90
2023-03-21T14:31:35.366Z,56.10
2023-03-21T14:34:03.787Z,56.20
2023-03-21T14:36:35.239Z,56.30
2023-03-21T14:39:07.262Z,56.20
2023-03-21T14:41:45.537Z,56.30
2023-03-21T14:44:54.297Z,56.20
2023-03-21T14:47:25.595Z,56.30
2023-03-21T14:49:52.880Z,56.30
2023-03-21T14:52:32.338Z,56.20
2023-03-21T14:55:01.584Z,56.40
2023-03-21T14:57:33.410Z,56.40
2023-03-21T15:00:10.820Z,56.40
2023-03-21T15:02:40.875Z,56.40
2023-03-21T15:05:22.371Z,56.40
2023-03-21T15:08:17.605Z,56.60
2023-03-21T15:11:07.199Z,56.60
2023-03-21T15:13:46.820Z,56.50
2023-03-21T15:16:16.827Z,56.70
2023-03-21T15:18:45.487Z,56.70
2023-03-21T15:21:30.338Z,56.70
2023-03-21T15:24:13.644Z,56.60
2023-03-21T15:26:45.417Z,56.80
2023-03-21T15:29:14.194Z,56.70
2023-03-21T15:31:41.704Z,57.00
2023-03-21T15:34:28.643Z,57.00
2023-03-21T15:37:01.062Z,56.80
2023-03-21T15:39:29.523Z,56.90
2023-03-21T15:42:22.988Z,57.00
2023-03-21T15:44:53.321Z,57.00
2023-03-21T15:47:41.522Z,56.90
2023-03-21T15:50:36.461Z,56.90
2023-03-21T15:53:14.740Z,57.00
2023-03-21T15:55:51.996Z,57.30
2023-03-21T15:58:26.911Z,58.10
2023-03-21T16:00:56.396Z,58.30
2023-03-21T16:03:33.076Z,58.50
2023-03-21T16:06:16.654Z,58.90
2023-03-21T16:08:52.809Z,59.40
2023-03-21T16:11:28.606Z,59.20
2023-03-21T16:13:56.523Z,59.20
2023-03-21T16:16:26.551Z,59.50
2023-03-21T16:18:58.457Z,59.50
2023-03-21T16:21:28.514Z,60.10
2023-03-21T16:23:56.542Z,60.60
2023-03-21T16:26:27.678Z,60.80
2023-03-21T16:28:54.693Z,60.70
2023-03-21T16:31:30.248Z,60.90
2023-03-21T16:33:57.472Z,61.10
2023-03-21T16:36:31.473Z,60.70
2023-03-21T16:38:59.183Z,60.50
2023-03-21T16:41:28.052Z,60.30
2023-03-21T16:43:56.093Z,60.50
2023-03-21T16:46:25.872Z,60.70
2023-03-21T16:48:55.955Z,60.70
2023-03-21T16:51:30.365Z,60.40
2023-03-21T16:53:57.962Z,59.80
2023-03-21T16:56:46.658Z,60.40
2023-03-21T16:59:14.541Z,60.30
2023-03-21T17:01:45.961Z,59.90
2023-03-21T17:04:13.245Z,60.10
2023-03-21T17:06:47.472Z,60.10
2023-03-21T17:09:16.109Z,59.80
2023-03-21T17:11:43.321Z,59.70
2023-03-21T17:14:11.782Z,59.90
2023-03-21T17:16:43.050Z,59.60
2023-03-21T17:19:20.218Z,59.30
2023-03-21T17:21:47.447Z,59.30
2023-03-21T17:24:14.408Z,59.60
2023-03-21T17:26:41.734Z,59.70
2023-03-21T17:29:12.547Z,59.60
2023-03-21T17:31:39.810Z,59.60
2023-03-21T17:34:06.912Z,59.50
2023-03-21T17:36:36.728Z,59.40
2023-03-21T17:39:06.537Z,59.70
2023-03-21T17:41:33.711Z,59.60
2023-03-21T17:44:00.800Z,59.50
2023-03-21T17:46:29.257Z,59.30
2023-03-21T17:48:56.844Z,59.30
2023-03-21T17:51:26.222Z,59.40
2023-03-21T17:53:53.352Z,59.50
2023-03-21T17:56:26.883Z,59.60
2023-03-21T17:58:54.491Z,59.60
2023-03-21T18:01:23.171Z,59.60
2023-03-21T18:03:51.544Z,59.60
2023-03-21T18:06:20.834Z,60.40
2023-03-21T18:08:49.186Z,59.60
2023-03-21T18:11:17.895Z,59.60
2023-03-21T18:13:45.679Z,59.70
2023-03-21T18:16:16.224Z,59.70
2023-03-21T18:18:45.171Z,59.70
2023-03-21T18:21:13.146Z,60.50
2023-03-21T18:23:41.014Z,64.00
2023-03-21T18:26:10.190Z,67.20
2023-03-21T18:28:39.591Z,69.60
2023-03-21T18:31:19.081Z,69.20
2023-03-21T18:33:48.658Z,66.80
2023-03-21T18:36:24.991Z,64.90
2023-03-21T18:38:52.659Z,63.40
2023-03-21T18:41:21.114Z,62.40
2023-03-21T18:44:13.626Z,61.80
2023-03-21T18:46:36.786Z,61.30
2023-03-21T18:49:33.960Z,61.60
2023-03-21T18:51:52.638Z,60.50
2023-03-21T18:54:20.540Z,60.40
2023-03-21T18:57:33.787Z,60.20
2023-03-21T18:59:39.359Z,60.00
2023-03-21T19:02:07.420Z,60.00
2023-03-21T19:04:37.332Z,59.90
2023-03-21T19:07:05.068Z,60.00
2023-03-21T19:09:54.748Z,59.80
2023-03-21T19:12:20.719Z,60.70
2023-03-21T19:14:47.709Z,59.90
2023-03-21T19:18:15.299Z,59.90
2023-03-21T19:20:02.462Z,59.60
2023-03-21T19:22:29.509Z,59.60
2023-03-21T19:24:56.493Z,59.30
2023-03-21T19:27:23.764Z,59.30
2023-03-21T19:30:08.388Z,59.00
2023-03-21T19:32:38.114Z,58.90
2023-03-21T19:35:05.913Z,59.10
2023-03-21T19:37:35.302Z,58.90
2023-03-21T19:40:03.650Z,59.60
2023-03-21T19:42:31.013Z,59.30
2023-03-21T19:44:58.296Z,58.80
2023-03-21T19:47:25.685Z,58.80
2023-03-21T19:52:41.301Z,58.30
2023-03-21T19:55:08.687Z,58.10
2023-03-21T19:57:36.318Z,58.10
2023-03-21T20:00:04.485Z,57.90
2023-03-21T20:02:36.143Z,57.60
2023-03-21T20:05:05.402Z,58.00
2023-03-21T20:07:33.153Z,58.10
2023-03-21T20:10:00.303Z,58.30
2023-03-21T20:12:27.670Z,58.30
2023-03-21T20:15:06.924Z,58.30
2023-03-21T20:17:39.893Z,58.40
2023-03-21T20:20:10.112Z,58.40
2023-03-21T20:23:05.284Z,58.10
2023-03-21T20:25:24.879Z,58.20
2023-03-21T20:28:10.489Z,57.80
2023-03-21T20:30:44.500Z,57.50
2023-03-21T20:33:11.746Z,57.50
2023-03-21T20:36:27.739Z,57.40
2023-03-21T20:38:26.316Z,57.30
2023-03-21T20:40:53.205Z,57.40
2023-03-21T20:44:11.643Z,57.50
2023-03-21T20:46:10.648Z,57.60
2023-03-21T20:48:38.629Z,57.80
2023-03-21T20:52:04.394Z,58.10
2023-03-21T20:53:58.409Z,58.20
2023-03-21T20:56:25.308Z,58.40
2023-03-21T20:59:04.895Z,58.30
2023-03-21T21:01:39.078Z,58.30
2023-03-21T21:04:06.200Z,58.30
2023-03-21T21:06:33.150Z,58.40
2023-03-21T21:09:00.369Z,58.30
2023-03-21T21:12:05.062Z,58.10
2023-03-21T21:14:16.130Z,58.30
2023-03-21T21:16:44.171Z,58.50
2023-03-21T21:19:11.212Z,58.80
2023-03-21T21:21:38.309Z,58.50
2023-03-21T21:24:07.664Z,58.60
2023-03-21T21:26:35.170Z,58.40
2023-03-21T21:29:02.650Z,58.40
2023-03-21T21:31:29.827Z,58.50
2023-03-21T21:33:59.181Z,58.50
2023-03-21T21:36:26.286Z,58.60
2023-03-21T21:38:53.353Z,58.70
2023-03-21T21:41:22.610Z,58.70
2023-03-21T21:43:49.902Z,58.50
2023-03-21T21:46:17.099Z,58.30
2023-03-21T21:48:44.514Z,58.20
2023-03-21T21:51:13.438Z,58.20
2023-03-21T21:53:40.916Z,58.00
2023-03-21T21:56:08.645Z,58.20
2023-03-21T21:58:38.973Z,58.40
2023-03-21T22:01:07.212Z,58.00
2023-03-21T22:03:41.062Z,58.20
2023-03-21T22:06:10.621Z,58.30
2023-03-21T22:08:38.096Z,58.30
2023-03-21T22:11:06.649Z,58.70
2023-03-21T22:13:33.778Z,58.10
2023-03-21T22:16:01.037Z,58.40
2023-03-21T22:18:28.041Z,58.50
2023-03-21T22:20:55.032Z,58.50
2023-03-21T22:23:22.283Z,58.60
2023-03-21T22:25:52.563Z,58.60
2023-03-21T22:28:22.131Z,58.50
2023-03-21T22:30:49.698Z,58.50
2023-03-21T22:33:16.677Z,58.50
2023-03-21T22:35:43.638Z,58.70
2023-03-21T22:38:10.950Z,58.70
2023-03-21T22:40:38.482Z,58.80
2023-03-21T22:43:05.801Z,59.00
2023-03-21T22:45:34.865Z,58.70
2023-03-21T22:48:02.137Z,59.00
2023-03-21T22:50:29.146Z,59.10
2023-03-21T22:52:56.115Z,59.20
2023-03-21T22:55:23.086Z,59.10
2023-03-21T22:57:50.077Z,59.30
2023-03-21T23:00:18.449Z,59.50
2023-03-21T23:02:45.477Z,59.60
2023-03-21T23:05:12.464Z,59.50
2023-03-21T23:07:39.636Z,59.50
2023-03-21T23:10:07.799Z,59.50
2023-03-21T23:12:34.994Z,59.40
2023-03-21T23:15:02.470Z,59.40
2023-03-21T23:17:29.642Z,59.50
2023-03-21T23:19:56.636Z,59.50
2023-03-21T23:22:23.773Z,59.70
2023-03-21T23:24:50.979Z,59.70
2023-03-21T23:27:18.221Z,59.80
2023-03-21T23:29:45.459Z,59.70
2023-03-21T23:32:12.595Z,59.30
2023-03-21T23:34:39.803Z,59.40
2023-03-21T23:37:06.924Z,59.40
2023-03-21T23:39:35.483Z,59.50
2023-03-21T23:42:02.592Z,59.60
2023-03-21T23:44:29.498Z,59.60
2023-03-21T23:46:56.560Z,59.40
2023-03-21T23:49:23.769Z,59.60
2023-03-21T23:51:50.903Z,59.60
2023-03-21T23:54:17.886Z,59.60
2023-03-21T23:56:44.939Z,59.50
2023-03-21T23:59:11.919Z,59.50
